^^
Datos históricos de la estación: Murcia-Puente Tocinos
Diario Informe para Septiembre 2, 2019 Unidades:  Métrico    Ingés   Ambas
Diario Semanal Mensual Anual
  Máxima: Mínima: Promedio:
Temperatura: 28.8 °C 22.4 °C 25.4 °C
Punto de rocio: 22.4 °C 17.7 °C 20.4 °C
Humedad: 86.3% 60.2% 74%
Velocidad viento: 20.1km/h 0km/h 8.4km/h
Racha viento: 38.9km/h - -
Viento- - ENE
Presión: 1017.9 hPa 1012.1 hPa -
Precipitación: 3.8 mm    
 
 
Tabla de datos para Septiembre 2, 2019
Hora Temperatura Punto de rocio Presión Viento Velocidad viento Racha viento Humedad Intensidad lluvia(por hora) Nubes
00:04 26 °C 17.7 °C 1012.1 hPa NNO 5 km/h 9.7 km/h 60.2% 0.0 mm
00:09 25.9 °C 17.8 °C 1012.1 hPa North 4.6 km/h 8.4 km/h 61% 0.0 mm
00:14 25.9 °C 17.8 °C 1012.1 hPa NNE 3.9 km/h 8.7 km/h 61.2% 0.0 mm
00:19 25.9 °C 18 °C 1012.1 hPa NNE 4.2 km/h 10.3 km/h 62% 0.0 mm
00:24 25.8 °C 18.1 °C 1012.1 hPa NE 5 km/h 13 km/h 62.6% 0.0 mm
00:29 25.7 °C 18.2 °C 1012.1 hPa NE 5.6 km/h 12.9 km/h 63.5% 0.0 mm
00:34 25.4 °C 18.3 °C 1012.1 hPa NE 6.9 km/h 11.3 km/h 64.8% 0.0 mm
00:39 25.4 °C 18.3 °C 1012.1 hPa Este 6.8 km/h 11.3 km/h 65% 0.0 mm
00:44 25.2 °C 18.2 °C 1012.1 hPa Este 6.5 km/h 9.7 km/h 65% 0.0 mm
00:49 25 °C 18 °C 1012.1 hPa Este 6.3 km/h 9.7 km/h 65% 0.0 mm
00:54 24.9 °C 18.1 °C 1012.1 hPa SE 5.8 km/h 8 km/h 66% 0.0 mm
00:59 24.9 °C 18.1 °C 1012.1 hPa SE 4.8 km/h 6.4 km/h 66% 0.0 mm
01:04 24.8 °C 18 °C 1012.2 hPa ENE 2.9 km/h 7.4 km/h 66% 0.0 mm
01:09 24.8 °C 18.3 °C 1012.2 hPa North 3.2 km/h 8 km/h 67.2% 0.0 mm
01:14 24.8 °C 18.6 °C 1012.2 hPa North 3.9 km/h 10 km/h 68.7% 0.0 mm
01:19 24.7 °C 18.8 °C 1012.2 hPa NE 4.2 km/h 13 km/h 69.9% 0.0 mm
01:24 24.6 °C 18.9 °C 1012.2 hPa NE 5 km/h 13 km/h 71% 0.0 mm
01:29 24.4 °C 18.9 °C 1012.2 hPa NE 5.6 km/h 13.7 km/h 71.5% 0.0 mm
01:34 24.3 °C 18.7 °C 1012.3 hPa NE 6.9 km/h 14.5 km/h 71% 0.0 mm
01:39 24.3 °C 18.7 °C 1012.3 hPa ENE 6.6 km/h 11.3 km/h 71% 0.0 mm
01:44 24.4 °C 18.6 °C 1012.3 hPa Este 5.8 km/h 9.5 km/h 70% 0.0 mm
01:49 24.3 °C 18.5 °C 1012.4 hPa Este 5.5 km/h 9.7 km/h 70% 0.0 mm
01:54 24.3 °C 18.4 °C 1012.4 hPa NE 5 km/h 8 km/h 69.7% 0.0 mm
01:59 24.2 °C 18.2 °C 1012.4 hPa NE 4.3 km/h 5.8 km/h 69% 0.0 mm
02:04 24.2 °C 18.2 °C 1012.4 hPa North 2.9 km/h 6.4 km/h 69% 0.0 mm
02:09 24.3 °C 18.4 °C 1012.4 hPa NNO 3 km/h 7.4 km/h 69.8% 0.0 mm
02:14 24.3 °C 18.4 °C 1012.4 hPa NNO 3.2 km/h 8 km/h 70% 0.0 mm
02:19 24.2 °C 18.5 °C 1012.4 hPa NNO 3.4 km/h 8 km/h 70.4% 0.0 mm
02:24 24.1 °C 18.6 °C 1012.4 hPa NNO 3.9 km/h 6.4 km/h 71.4% 0.0 mm
02:29 24.1 °C 18.7 °C 1012.4 hPa NNO 3.6 km/h 5.8 km/h 72% 0.0 mm
02:34 24 °C 18.6 °C 1012.4 hPa NNO 2.9 km/h 6.4 km/h 72% 0.0 mm
02:39 23.9 °C 18.6 °C 1012.4 hPa NNO 2.7 km/h 5.8 km/h 72% 0.0 mm
02:44 23.9 °C 18.6 °C 1012.4 hPa NNO 2.2 km/h 6.4 km/h 72.2% 0.0 mm
02:49 23.9 °C 18.8 °C 1012.4 hPa NO 2.4 km/h 6.4 km/h 73% 0.0 mm
02:54 23.9 °C 18.6 °C 1012.4 hPa NE 2.9 km/h 7.4 km/h 72.4% 0.0 mm
02:59 23.9 °C 18.5 °C 1012.4 hPa ESE 2.7 km/h 8 km/h 72% 0.0 mm
03:04 23.8 °C 18.5 °C 1012.4 hPa ESE 2.2 km/h 4.7 km/h 72% 0.0 mm
03:09 23.8 °C 18.5 °C 1012.4 hPa ESE 2.2 km/h 4.8 km/h 72.3% 0.0 mm
03:14 23.8 °C 18.7 °C 1012.4 hPa NE 2.2 km/h 4.8 km/h 73.2% 0.0 mm
03:19 23.8 °C 18.9 °C 1012.4 hPa NNE 2.2 km/h 5.6 km/h 74% 0.0 mm
03:24 23.8 °C 18.9 °C 1012.4 hPa NNE 2.2 km/h 4.8 km/h 74% 0.0 mm
03:29 23.8 °C 18.9 °C 1012.4 hPa NNE 1.6 km/h 4.8 km/h 74% 0.0 mm
03:34 23.7 °C 18.8 °C 1012.4 hPa Calm   3.9 km/h 74% 0.0 mm
03:39 23.7 °C 18.9 °C 1012.4 hPa NNE 0.7 km/h 5.8 km/h 74.7% 0.0 mm
03:44 23.6 °C 18.9 °C 1012.4 hPa NNE 2.2 km/h 6.4 km/h 75% 0.0 mm
03:49 23.4 °C 18.8 °C 1012.6 hPa NNE 2.5 km/h 6.4 km/h 75% 0.0 mm
03:54 23.3 °C 18.7 °C 1012.6 hPa NE 3.2 km/h 7.6 km/h 75% 0.0 mm
03:59 23.3 °C 18.6 °C 1012.6 hPa NE 3.4 km/h 8 km/h 74.8% 0.0 mm
04:04 23.3 °C 18.4 °C 1012.6 hPa ENE 3.9 km/h 8 km/h 74% 0.0 mm
04:09 23.3 °C 18.1 °C 1012.6 hPa ESE 3.9 km/h 8 km/h 72.8% 0.0 mm
04:14 23.4 °C 18.2 °C 1012.6 hPa Este 3.9 km/h 8 km/h 72.6% 0.0 mm
04:19 23.4 °C 18.5 °C 1012.7 hPa NNE 3.7 km/h 8.4 km/h 73.9% 0.0 mm
04:24 23.3 °C 18.5 °C 1012.7 hPa NNE 3.2 km/h 8 km/h 74.6% 0.0 mm
04:29 23.2 °C 18.7 °C 1012.7 hPa NE 3.7 km/h 9.5 km/h 75.7% 0.0 mm
04:34 23.2 °C 19 °C 1012.8 hPa NE 4.7 km/h 9.7 km/h 77.4% 0.0 mm
04:39 23.2 °C 19.3 °C 1012.8 hPa NE 5 km/h 9.7 km/h 78.6% 0.0 mm
04:44 23.1 °C 19.1 °C 1012.8 hPa NE 5.8 km/h 9.7 km/h 78.3% 0.0 mm
04:49 23.1 °C 18.7 °C 1012.9 hPa NE 5.8 km/h 10 km/h 76.5% 0.0 mm
04:54 23.1 °C 18.6 °C 1012.9 hPa NE 5.8 km/h 9.7 km/h 76% 0.0 mm
04:59 23.1 °C 18.7 °C 1012.9 hPa NE 5.8 km/h 9.7 km/h 76.7% 0.0 mm
05:04 22.9 °C 18.8 °C 1013.2 hPa NE 5.8 km/h 9.7 km/h 77.8% 0.0 mm
05:09 22.8 °C 19 °C 1013.2 hPa NE 5.8 km/h 10 km/h 78.9% 0.0 mm
05:14 22.8 °C 19 °C 1013.2 hPa NNE 5.8 km/h 11.1 km/h 79.3% 0.0 mm
05:19 22.9 °C 19.2 °C 1013.3 hPa NNE 5.8 km/h 11.3 km/h 80% 0.0 mm
05:24 22.9 °C 19.4 °C 1013.3 hPa NNE 5.8 km/h 9.7 km/h 80.9% 0.0 mm
05:29 22.9 °C 19.4 °C 1013.3 hPa NNE 5.5 km/h 9.7 km/h 81% 0.0 mm
05:34 22.9 °C 19.5 °C 1013.3 hPa NNE 4.7 km/h 8 km/h 81.1% 0.0 mm
05:39 23 °C 19.7 °C 1013.3 hPa NNE 4.7 km/h 8.4 km/h 81.6% 0.0 mm
05:44 23 °C 19.8 °C 1013.3 hPa NNE 5 km/h 8.4 km/h 81.9% 0.0 mm
05:49 23 °C 19.8 °C 1013.3 hPa NE 4.9 km/h 10 km/h 82% 0.0 mm
05:54 23 °C 19.9 °C 1013.3 hPa NE 4.7 km/h 9.7 km/h 82.6% 0.0 mm
05:59 22.9 °C 19.8 °C 1013.3 hPa NE 5.3 km/h 11.9 km/h 83% 0.0 mm
06:04 22.8 °C 19.9 °C 1013.4 hPa NE 6.5 km/h 11.9 km/h 83.3% 0.0 mm
06:09 22.8 °C 19.9 °C 1013.4 hPa NE 6.5 km/h 11.3 km/h 84% 0.0 mm
06:14 22.7 °C 19.9 °C 1013.4 hPa NE 6.5 km/h 9.7 km/h 84.1% 0.0 mm
06:19 22.7 °C 20 °C 1013.5 hPa NE 5.9 km/h 8.4 km/h 85% 0.0 mm
06:24 22.6 °C 19.9 °C 1013.5 hPa NE 4.7 km/h 10 km/h 85% 0.0 mm
06:29 22.5 °C 19.9 °C 1013.5 hPa NE 5 km/h 11.9 km/h 85% 0.0 mm
06:34 22.4 °C 19.8 °C 1013.7 hPa NE 5.8 km/h 11.9 km/h 85% 0.0 mm
06:39 22.4 °C 19.8 °C 1013.7 hPa ENE 6.2 km/h 11.3 km/h 85% 0.0 mm
06:44 22.5 °C 19.9 °C 1013.7 hPa Este 6.9 km/h 11.3 km/h 84.9% 0.0 mm
06:49 22.5 °C 19.7 °C 1013.8 hPa Este 6.6 km/h 9.7 km/h 84% 0.0 mm
06:54 22.5 °C 19.8 °C 1013.8 hPa ESE 5.8 km/h 10 km/h 84.9% 0.0 mm
06:59 22.6 °C 20.1 °C 1013.8 hPa Este 6 km/h 9.7 km/h 85.8% 0.0 mm
07:04 22.7 °C 20.2 °C 1014.0 hPa Este 6.5 km/h 9.7 km/h 86% 0.0 mm
07:09 22.8 °C 20.3 °C 1014.0 hPa Este 6.3 km/h 10 km/h 86% 0.0 mm
07:14 22.8 °C 20.4 °C 1014.0 hPa Este 5.8 km/h 11.1 km/h 86.3% 0.0 mm
07:19 23 °C 20.6 °C 1014.1 hPa Este 6 km/h 11.3 km/h 86.3% 0.0 mm
07:24 23.2 °C 20.7 °C 1014.1 hPa ESE 6.5 km/h 11.1 km/h 86% 0.0 mm
07:29 23.3 °C 20.7 °C 1014.1 hPa ESE 6.5 km/h 11.3 km/h 85.6% 0.0 mm
07:34 23.4 °C 20.7 °C 1014.2 hPa Este 6.5 km/h 11.3 km/h 85% 0.0 mm
07:39 23.5 °C 21 °C 1014.2 hPa Este 6.3 km/h 9.7 km/h 86% 0.0 mm
07:44 23.6 °C 21.1 °C 1014.2 hPa Este 5.8 km/h 9.7 km/h 86% 0.0 mm
07:49 23.6 °C 21.1 °C 1014.3 hPa Este 5.2 km/h 8 km/h 86% 0.0 mm
07:54 23.7 °C 21.2 °C 1014.3 hPa Este 3.9 km/h 8 km/h 86% 0.0 mm
07:59 23.7 °C 21.2 °C 1014.3 hPa Este 3.6 km/h 8 km/h 86% 0.0 mm
08:04 23.8 °C 21.3 °C 1014.4 hPa ENE 3.2 km/h 7.4 km/h 86% 0.0 mm
08:09 23.8 °C 21.4 °C 1014.4 hPa ENE 3.1 km/h 8 km/h 86% 0.0 mm
08:14 23.9 °C 21.4 °C 1014.4 hPa NE 2.9 km/h 5 km/h 86% 0.0 mm
08:19 24 °C 21.5 °C 1014.7 hPa NNE 2.7 km/h 6.4 km/h 86% 0.0 mm
08:24 24 °C 21.5 °C 1014.7 hPa NNE 2.2 km/h 6.4 km/h 86% 0.0 mm
08:29 24.1 °C 21.6 °C 1014.7 hPa North 2.2 km/h 7.4 km/h 86% 0.0 mm
08:34 24.1 °C 21.6 °C 1014.9 hPa NNO 2.2 km/h 8 km/h 86% 0.0 mm
08:39 24.1 °C 21.5 °C 1014.9 hPa NO 2.8 km/h 8 km/h 85.6% 0.0 mm
08:44 24.1 °C 21.6 °C 1014.9 hPa NO 3.9 km/h 8.4 km/h 85.8% 0.0 mm
08:49 24.1 °C 21.4 °C 1015.1 hPa Oeste 3.7 km/h 8 km/h 85% 0.0 mm
08:54 24 °C 21.3 °C 1015.1 hPa Oeste 3.2 km/h 8.4 km/h 84.8% 0.0 mm
08:59 24 °C 21 °C 1015.1 hPa Oeste 3.7 km/h 8.7 km/h 83.2% 0.0 mm
09:04 24.1 °C 21.1 °C 1015.3 hPa ONO 4.6 km/h 9.7 km/h 83.1% 0.0 mm
09:09 24.3 °C 21.4 °C 1015.3 hPa NO 5 km/h 9.7 km/h 84% 0.0 mm
09:14 24.4 °C 21.5 °C 1015.3 hPa ONO 5.8 km/h 9.7 km/h 84% 0.0 mm
09:19 24.6 °C 21.7 °C 1015.5 hPa ONO 5.8 km/h 9.7 km/h 84% 0.0 mm
09:24 24.7 °C 21.8 °C 1015.5 hPa ONO 5.8 km/h 9.7 km/h 84% 0.0 mm
09:29 24.8 °C 21.9 °C 1015.5 hPa North 5.4 km/h 8 km/h 84% 0.0 mm
09:34 25 °C 22.1 °C 1015.8 hPa NE 4.7 km/h 13 km/h 83.7% 0.0 mm
09:39 25.2 °C 22.1 °C 1015.8 hPa NE 5.2 km/h 13.7 km/h 83% 0.0 mm
09:44 25.3 °C 22.2 °C 1015.8 hPa NE 6.5 km/h 15.6 km/h 82.9% 0.0 mm
09:49 25.3 °C 22.1 °C 1015.9 hPa NE 7.6 km/h 17.2 km/h 82.1% 0.0 mm
09:54 25.5 °C 22.2 °C 1015.9 hPa NE 10 km/h 17.7 km/h 82% 0.0 mm
09:59 25.8 °C 22.3 °C 1015.9 hPa ENE 9.8 km/h 22.5 km/h 81.2% 0.0 mm
10:04 26.1 °C 22.3 °C 1015.9 hPa Este 9.5 km/h 22.5 km/h 79.7% 0.0 mm
10:09 26.4 °C 22.2 °C 1015.9 hPa ENE 10.2 km/h 22.5 km/h 77.6% 0.0 mm
10:14 26.6 °C 22 °C 1015.9 hPa ENE 11.9 km/h 22.5 km/h 76.3% 0.0 mm
10:19 26.6 °C 21.8 °C 1016.2 hPa Este 12.3 km/h 29.6 km/h 75.4% 0.0 mm
10:24 26.4 °C 21.9 °C 1016.2 hPa ENE 13 km/h 29 km/h 76% 0.0 mm
10:29 26.3 °C 21.8 °C 1016.2 hPa NE 13.6 km/h 37.8 km/h 76% 0.0 mm
10:34 26.3 °C 21.7 °C 1016.4 hPa ENE 14.8 km/h 38.9 km/h 76% 0.0 mm
10:39 26.2 °C 21.6 °C 1016.4 hPa ENE 16.1 km/h 38.6 km/h 76% 0.0 mm
10:44 26.3 °C 21.5 °C 1016.4 hPa ENE 19 km/h 33.8 km/h 75.3% 0.0 mm
10:49 26.3 °C 21.5 °C 1016.7 hPa ENE 18.4 km/h 30.6 km/h 75% 0.0 mm
10:54 26.5 °C 21.7 °C 1016.7 hPa NE 17.2 km/h 30.6 km/h 74.8% 0.0 mm
10:59 26.4 °C 21.5 °C 1016.7 hPa ENE 16.6 km/h 27.8 km/h 74.4% 0.0 mm
11:04 26.3 °C 21.5 °C 1016.8 hPa NE 15.6 km/h 31.5 km/h 75% 0.0 mm
11:09 26.2 °C 21.5 °C 1016.8 hPa NE 16.1 km/h 32.2 km/h 75.2% 0.0 mm
11:14 26.2 °C 21.6 °C 1016.8 hPa ENE 17.2 km/h 27.4 km/h 75.8% 0.0 mm
11:19 26.3 °C 21.5 °C 1017.0 hPa NE 16.2 km/h 27.8 km/h 75% 0.0 mm
11:24 26.3 °C 21.5 °C 1017.0 hPa NE 14 km/h 30.9 km/h 75% 0.0 mm
11:29 26.3 °C 21.4 °C 1017.0 hPa NE 15.2 km/h 33.5 km/h 74.5% 0.0 mm
11:34 26.3 °C 21.4 °C 1017.0 hPa NE 18 km/h 33.8 km/h 74.3% 0.0 mm
11:39 26.4 °C 21.4 °C 1016.9 hPa NE 17.6 km/h 31.5 km/h 74% 0.0 mm
11:44 26.4 °C 21.3 °C 1016.9 hPa NE 16.4 km/h 38.9 km/h 73.7% 0.0 mm
11:49 26.4 °C 21.3 °C 1017.0 hPa NE 17 km/h 38.6 km/h 73.3% 0.0 mm
11:54 26.7 °C 21.4 °C 1017.0 hPa NE 18.4 km/h 29 km/h 73% 0.0 mm
11:59 26.8 °C 21.2 °C 1017.0 hPa NE 16.6 km/h 33.3 km/h 71.7% 0.0 mm
12:04 27 °C 21.1 °C 1017.2 hPa NE 13 km/h 33.8 km/h 70.4% 0.0 mm
12:09 27.2 °C 21.2 °C 1017.2 hPa NE 13.3 km/h 27.8 km/h 69.6% 0.0 mm
12:14 27.3 °C 21 °C 1017.2 hPa NE 14 km/h 33.5 km/h 68.4% 0.0 mm
12:19 27.4 °C 21 °C 1017.2 hPa NE 15.3 km/h 33.8 km/h 68.1% 0.0 mm
12:24 27.7 °C 20.8 °C 1017.1 hPa ENE 18 km/h 29.8 km/h 66% 0.0 mm
12:29 27.8 °C 20.6 °C 1017.1 hPa ENE 16.8 km/h 30.6 km/h 65% 0.0 mm
12:34 27.9 °C 20.5 °C 1017.1 hPa ENE 14 km/h 25.7 km/h 64.2% 0.0 mm
12:39 27.8 °C 20.5 °C 1017.0 hPa NE 13.9 km/h 24.1 km/h 64.1% 0.0 mm
12:44 27.8 °C 20.4 °C 1017.0 hPa NE 13.7 km/h 22.5 km/h 64% 0.0 mm
12:49 27.8 °C 20.3 °C 1017.0 hPa NE 13.5 km/h 24.5 km/h 64% 0.0 mm
12:54 27.7 °C 20.3 °C 1017.0 hPa NE 13 km/h 25.9 km/h 64.2% 0.0 mm
12:59 27.6 °C 20 °C 1017.0 hPa NE 13.6 km/h 27.8 km/h 63.5% 0.0 mm
13:04 27.6 °C 20.3 °C 1017.0 hPa NE 14.8 km/h 27.4 km/h 64.5% 0.0 mm
13:09 27.6 °C 20.2 °C 1016.9 hPa NE 13.9 km/h 24.1 km/h 64% 0.0 mm
13:14 27.7 °C 20.6 °C 1016.9 hPa NNE 11.9 km/h 19.3 km/h 65.6% 0.0 mm
13:19 27.6 °C 21.7 °C 1017.0 hPa NNO 10.5 km/h 19.3 km/h 70.2% 0.0 mm
13:24 27.2 °C 22.1 °C 1017.0 hPa North 7.6 km/h 18.5 km/h 74.1% 0.3 mm
13:29 26.5 °C 22.4 °C 1017.0 hPa North 8.4 km/h 19.3 km/h 78.1% 0.5 mm
13:34 26.1 °C 22.4 °C 1017.1 hPa North 10.3 km/h 16.1 km/h 80.3% 0.8 mm
13:39 25.8 °C 22.4 °C 1017.1 hPa North 9.7 km/h 13.7 km/h 81.5% 1.5 mm
13:44 25.7 °C 22.2 °C 1017.1 hPa NNE 8.4 km/h 18.5 km/h 81.4% 1.5 mm
13:49 25.5 °C 21.8 °C 1017.1 hPa NNE 8.7 km/h 19.3 km/h 80.4% 2.8 mm
13:54 25.4 °C 22 °C 1017.1 hPa NNE 9.5 km/h 16.1 km/h 81.5% 3.3 mm
13:59 25.3 °C 22 °C 1017.1 hPa NE 9.5 km/h 16.7 km/h 82% 3.6 mm
14:04 25.3 °C 22 °C 1017.1 hPa NNE 9.5 km/h 17.2 km/h 82% 3.6 mm
14:09 25.3 °C 22 °C 1017.0 hPa NE 9.8 km/h 17.7 km/h 82% 3.6 mm
14:14 25.3 °C 22.1 °C 1017.0 hPa NE 10.3 km/h 25.9 km/h 82% 3.6 mm
14:19 25.4 °C 22.1 °C 1017.0 hPa NE 11.4 km/h 25.9 km/h 82% 3.6 mm
14:24 25.4 °C 22 °C 1016.5 hPa NNE 14 km/h 25.7 km/h 81.6% 3.6 mm
14:29 25.4 °C 22.1 °C 1016.5 hPa NNE 13.5 km/h 22.5 km/h 82% 3.5 mm
14:34 25.4 °C 22 °C 1016.7 hPa NNE 12.2 km/h 20.4 km/h 81.3% 3.0 mm
14:39 25.6 °C 21.9 °C 1016.7 hPa NNE 12.7 km/h 19.8 km/h 80.4% 3.0 mm
14:44 25.7 °C 21.8 °C 1016.7 hPa NE 13.7 km/h 20.9 km/h 78.9% 2.3 mm
14:49 26 °C 21.8 °C 1016.7 hPa NE 13.2 km/h 22.2 km/h 77.5% 2.3 mm
14:54 26.3 °C 21.5 °C 1016.6 hPa NE 12.2 km/h 25.1 km/h 75.1% 0.7 mm
14:59 26.6 °C 21.4 °C 1016.6 hPa NE 12.5 km/h 25.9 km/h 73.2% 0.2 mm
15:04 26.8 °C 21.3 °C 1016.6 hPa NE 13 km/h 24.1 km/h 72.2% 0.2 mm
15:09 26.8 °C 21.4 °C 1016.4 hPa NE 13.3 km/h 24.1 km/h 72.3% 0.2 mm
15:14 26.9 °C 21.7 °C 1016.4 hPa NE 14 km/h 20.9 km/h 73.1% 0.2 mm
15:19 27.2 °C 21.9 °C 1016.4 hPa NE 12.3 km/h 18.5 km/h 72.7% 0.2 mm
15:24 27.2 °C 21.7 °C 1016.3 hPa NE 8.7 km/h 22.5 km/h 71.8% 0.2 mm
15:29 27.1 °C 21.6 °C 1016.3 hPa NE 9.4 km/h 22.5 km/h 72% 0.0 mm
15:34 27.1 °C 21.6 °C 1016.3 hPa NE 11.1 km/h 22.5 km/h 72.1% 0.0 mm
15:39 27.3 °C 21.9 °C 1016.2 hPa NE 10.6 km/h 19.3 km/h 72.3% 0.0 mm
15:44 27.6 °C 21.9 °C 1016.2 hPa NE 9.5 km/h 18.5 km/h 71.5% 0.0 mm
15:49 27.6 °C 22 °C 1016.2 hPa NE 9.9 km/h 19.3 km/h 71.9% 0.0 mm
15:54 27.6 °C 21.9 °C 1015.9 hPa NE 11.1 km/h 22.5 km/h 70.9% 0.0 mm
15:59 27.6 °C 21.8 °C 1015.9 hPa NE 11.5 km/h 22.5 km/h 70.5% 0.0 mm
16:04 27.7 °C 21.9 °C 1015.9 hPa NE 12.2 km/h 19.3 km/h 71% 0.0 mm
16:09 27.7 °C 21.8 °C 1015.7 hPa NE 11.6 km/h 19 km/h 70.1% 0.0 mm
16:14 27.8 °C 21.5 °C 1015.7 hPa NE 10 km/h 19.3 km/h 68.8% 0.0 mm
16:19 27.9 °C 21.4 °C 1015.7 hPa ENE 10 km/h 18.5 km/h 67.7% 0.0 mm
16:24 28.2 °C 21.6 °C 1015.6 hPa NE 10 km/h 20.9 km/h 67.6% 0.0 mm
16:29 28.2 °C 21.4 °C 1015.6 hPa NE 10.1 km/h 20.9 km/h 66.6% 0.0 mm
16:34 28.3 °C 20.9 °C 1015.6 hPa NE 10.3 km/h 18.5 km/h 64.3% 0.0 mm
16:39 28.3 °C 20.9 °C 1015.5 hPa NE 10.2 km/h 20.9 km/h 64.3% 0.0 mm
16:44 28.4 °C 20.9 °C 1015.5 hPa ENE 10 km/h 20.9 km/h 63.9% 0.0 mm
16:49 28.6 °C 20.9 °C 1015.5 hPa NE 10.6 km/h 20.9 km/h 63.2% 0.0 mm
16:54 28.6 °C 21 °C 1015.2 hPa NE 11.9 km/h 22.5 km/h 63.7% 0.0 mm
16:59 28.6 °C 21.1 °C 1015.2 hPa NE 12.5 km/h 22.5 km/h 64% 0.0 mm
17:04 28.7 °C 21.3 °C 1015.2 hPa NE 13.7 km/h 20.9 km/h 64.6% 0.0 mm
17:09 28.8 °C 21.4 °C 1015.2 hPa NE 12.9 km/h 22.2 km/h 64.4% 0.0 mm
17:14 28.8 °C 21.2 °C 1015.2 hPa NE 11.1 km/h 22.5 km/h 63.6% 0.0 mm
17:19 28.8 °C 21.1 °C 1015.5 hPa NE 11.4 km/h 28.6 km/h 63% 0.0 mm
17:24 28.7 °C 21.1 °C 1015.5 hPa NE 12.2 km/h 29.6 km/h 63.5% 0.0 mm
17:29 28.7 °C 21.4 °C 1015.5 hPa NNE 12.8 km/h 27.4 km/h 64.6% 0.0 mm
17:34 28.8 °C 21.9 °C 1015.5 hPa NE 14 km/h 20.9 km/h 66.6% 0.0 mm
17:39 28.7 °C 22 °C 1015.4 hPa NE 13.5 km/h 25.9 km/h 67.2% 0.0 mm
17:44 28.4 °C 21.8 °C 1015.4 hPa NE 12.2 km/h 25.9 km/h 67.3% 0.0 mm
17:49 28.5 °C 21.5 °C 1015.4 hPa NE 12.8 km/h 20.9 km/h 66% 0.0 mm
17:54 28.6 °C 21.8 °C 1015.4 hPa NE 14 km/h 20.9 km/h 66.9% 0.0 mm
17:59 28.6 °C 21.9 °C 1015.4 hPa NE 14.3 km/h 28.2 km/h 67.2% 0.0 mm
18:04 28.3 °C 21.9 °C 1015.4 hPa NE 14.8 km/h 27.8 km/h 68.1% 0.0 mm
18:09 28.2 °C 21.8 °C 1015.2 hPa NE 15.3 km/h 29.8 km/h 68.3% 0.0 mm
18:14 27.9 °C 21.5 °C 1015.2 hPa NE 16.4 km/h 30.6 km/h 68.2% 0.0 mm
18:19 27.7 °C 21.5 °C 1015.2 hPa NE 17.5 km/h 30.6 km/h 69% 0.0 mm
18:24 27.7 °C 21.4 °C 1015.1 hPa NE 20.1 km/h 29.8 km/h 68.7% 0.0 mm
18:29 27.6 °C 21.3 °C 1015.1 hPa NE 19 km/h 30.6 km/h 68.6% 0.0 mm
18:34 27.6 °C 21.1 °C 1015.1 hPa ENE 16.4 km/h 27.4 km/h 68% 0.0 mm
18:39 27.4 °C 21.1 °C 1015.1 hPa NE 16.2 km/h 26.2 km/h 68.5% 0.0 mm
18:44 27.4 °C 21 °C 1015.1 hPa ENE 15.6 km/h 25.7 km/h 68.1% 0.0 mm
18:49 27.4 °C 21 °C 1015.1 hPa ENE 14.4 km/h 25.7 km/h 68.1% 0.0 mm
18:54 27.3 °C 20.9 °C 1015.1 hPa ENE 11.9 km/h 31.7 km/h 68% 0.0 mm
18:59 27.2 °C 20.9 °C 1015.1 hPa ENE 12.9 km/h 32.2 km/h 68.5% 0.0 mm
19:04 27.1 °C 21 °C 1015.3 hPa NE 14.8 km/h 25.1 km/h 69% 0.0 mm
19:09 27 °C 21 °C 1015.3 hPa NE 14.6 km/h 29.6 km/h 69.6% 0.0 mm
19:14 26.9 °C 21 °C 1015.3 hPa NE 14 km/h 29 km/h 70% 0.0 mm
19:19 26.9 °C 21 °C 1015.3 hPa ENE 13.7 km/h 28.2 km/h 70% 0.0 mm
19:24 26.8 °C 20.8 °C 1015.2 hPa NE 13 km/h 27.4 km/h 69.6% 0.0 mm
19:29 26.7 °C 20.8 °C 1015.2 hPa ENE 13 km/h 24.1 km/h 70% 0.0 mm
19:34 26.6 °C 20.7 °C 1015.3 hPa NE 13 km/h 30.6 km/h 70% 0.0 mm
19:39 26.4 °C 20.5 °C 1015.3 hPa NE 13.3 km/h 30.6 km/h 70% 0.0 mm
19:44 26.3 °C 20.5 °C 1015.3 hPa NE 14 km/h 29 km/h 70.1% 0.0 mm
19:49 26.3 °C 20.2 °C 1015.3 hPa NE 13.4 km/h 25.1 km/h 69.3% 0.0 mm
19:54 26.2 °C 19.8 °C 1015.3 hPa NE 11.9 km/h 25.9 km/h 68% 0.0 mm
19:59 26.2 °C 19.7 °C 1015.3 hPa NE 12 km/h 22.5 km/h 67.2% 0.0 mm
20:04 26.2 °C 19.6 °C 1015.3 hPa NE 12.2 km/h 17.2 km/h 67% 0.0 mm
20:09 26.2 °C 19.3 °C 1015.2 hPa ENE 11.1 km/h 18.5 km/h 66% 0.0 mm
20:14 26.1 °C 19.1 °C 1015.2 hPa ENE 8.4 km/h 20.4 km/h 65.4% 0.0 mm
20:19 26 °C 19 °C 1015.4 hPa NE 8.5 km/h 20.9 km/h 65.3% 0.0 mm
20:24 26 °C 19.1 °C 1015.4 hPa ENE 8.7 km/h 19.3 km/h 66% 0.0 mm
20:29 25.9 °C 19.1 °C 1015.4 hPa ENE 8.4 km/h 16.1 km/h 66% 0.0 mm
20:34 25.8 °C 18.9 °C 1015.6 hPa ENE 7.6 km/h 14.5 km/h 66% 0.0 mm
20:39 25.8 °C 18.9 °C 1015.6 hPa NE 7.2 km/h 14 km/h 66% 0.0 mm
20:44 25.7 °C 19 °C 1015.6 hPa ENE 6.5 km/h 20.1 km/h 66.5% 0.0 mm
20:49 25.7 °C 19.1 °C 1015.7 hPa ENE 6.6 km/h 20.9 km/h 67% 0.0 mm
20:54 25.7 °C 19.2 °C 1015.7 hPa NE 6.9 km/h 11.3 km/h 67.5% 0.0 mm
20:59 25.6 °C 19.3 °C 1015.7 hPa NNE 6.1 km/h 8.4 km/h 68.1% 0.0 mm
21:04 25.6 °C 19.5 °C 1015.9 hPa NNE 4.7 km/h 9.3 km/h 69% 0.0 mm
21:09 25.4 °C 19.4 °C 1015.9 hPa NE 4.8 km/h 10 km/h 69.3% 0.0 mm
21:14 25.3 °C 19.5 °C 1015.9 hPa NE 5 km/h 9.7 km/h 70% 0.0 mm
21:19 25.2 °C 19.6 °C 1016.1 hPa NE 5.4 km/h 10 km/h 70.9% 0.0 mm
21:24 25.2 °C 19.7 °C 1016.1 hPa NE 6.5 km/h 9.7 km/h 71.8% 0.0 mm
21:29 25.1 °C 19.8 °C 1016.1 hPa NE 6 km/h 10 km/h 72.4% 0.0 mm
21:34 25.1 °C 20 °C 1016.4 hPa NE 5 km/h 10 km/h 73.4% 0.0 mm
21:39 25 °C 20 °C 1016.4 hPa NE 5.4 km/h 10 km/h 74% 0.0 mm
21:44 24.9 °C 20.1 °C 1016.4 hPa NE 6.5 km/h 11.1 km/h 74.7% 0.0 mm
21:49 24.9 °C 20.2 °C 1016.5 hPa NE 6.3 km/h 11.3 km/h 75% 0.0 mm
21:54 24.9 °C 20.2 °C 1016.5 hPa NE 5.8 km/h 11.1 km/h 75% 0.0 mm
21:59 24.9 °C 20.4 °C 1016.5 hPa NE 6 km/h 11.3 km/h 75.9% 0.0 mm
22:04 24.8 °C 20.3 °C 1016.6 hPa Este 6.5 km/h 9.7 km/h 76% 0.0 mm
22:09 24.8 °C 20.3 °C 1016.6 hPa ENE 6 km/h 10 km/h 76.1% 0.0 mm
22:14 24.7 °C 20.4 °C 1016.6 hPa NE 5 km/h 9.7 km/h 77% 0.0 mm
22:19 24.7 °C 20.4 °C 1016.9 hPa NE 5 km/h 8.4 km/h 77% 0.0 mm
22:24 24.7 °C 20.4 °C 1016.9 hPa ENE 5 km/h 8.7 km/h 77% 0.0 mm
22:29 24.7 °C 20.4 °C 1016.9 hPa NE 5 km/h 9.7 km/h 77% 0.0 mm
22:34 24.6 °C 20.3 °C 1017.1 hPa NNE 5 km/h 11.3 km/h 77% 0.0 mm
22:39 24.6 °C 20.3 °C 1017.1 hPa NNE 5.4 km/h 11.3 km/h 77% 0.0 mm
22:44 24.5 °C 20.4 °C 1017.1 hPa NNE 6.5 km/h 9.7 km/h 77.9% 0.0 mm
22:49 24.4 °C 20.3 °C 1017.3 hPa NNE 5.9 km/h 9.3 km/h 78% 0.0 mm
22:54 24.4 °C 20.3 °C 1017.3 hPa NNE 4.7 km/h 9.7 km/h 78% 0.0 mm
22:59 24.3 °C 20.3 °C 1017.3 hPa NNE 4.7 km/h 8 km/h 78% 0.0 mm
23:04 24.3 °C 20.2 °C 1017.5 hPa NNE 4.7 km/h 9.3 km/h 78% 0.0 mm
23:09 24.3 °C 20.2 °C 1017.5 hPa NNE 4.7 km/h 9.7 km/h 78% 0.0 mm
23:14 24.3 °C 20.2 °C 1017.5 hPa NNE 4.7 km/h 8 km/h 78% 0.0 mm
23:19 24.2 °C 20.3 °C 1017.7 hPa NNO 4.1 km/h 5.8 km/h 78.9% 0.0 mm
23:24 24.2 °C 20.3 °C 1017.7 hPa North 2.9 km/h 7.4 km/h 79% 0.0 mm
23:29 24.2 °C 20.3 °C 1017.7 hPa NNE 3.2 km/h 8 km/h 79% 0.0 mm
23:34 24.1 °C 20.2 °C 1017.9 hPa NE 3.9 km/h 8 km/h 79% 0.0 mm
23:39 24.1 °C 20.2 °C 1017.9 hPa North 3.6 km/h 8 km/h 79% 0.0 mm
23:44 24.1 °C 20.3 °C 1017.9 hPa NNE 3.2 km/h 8 km/h 79.4% 0.0 mm
23:49 24 °C 20.3 °C 1017.9 hPa NE 3.2 km/h 8 km/h 79.8% 0.0 mm
23:54 24 °C 20.3 °C 1017.8 hPa NE 3.2 km/h 8.4 km/h 80% 0.0 mm
23:59 23.9 °C 20.3 °C 1017.8 hPa NE 3.7 km/h 8.4 km/h 80% 0.0 mm
Murcia-Puente Tocinos, España
Compliments of Weather Underground - 3 mb

La estación de MeteoMurcia.com, publica sus datos en los siguientes proyectos:

Weather Underground PWS IMURCIAP2 Meteoclimatic www.awekas.at

W3Counter
Web Analytics